createdAt,value
2019-02-17T00:01:27.976Z,8.30
2019-02-17T00:04:43.584Z,8.20
2019-02-17T00:07:28.089Z,8.20
2019-02-17T00:10:11.680Z,8.20
2019-02-17T00:12:47.709Z,8.10
2019-02-17T00:15:23.315Z,8.10
2019-02-17T00:17:54.567Z,8.10
2019-02-17T00:20:37.774Z,8.10
2019-02-17T00:23:18.923Z,8.00
2019-02-17T00:26:00.610Z,8.00
2019-02-17T00:28:31.277Z,8.00
2019-02-17T00:31:04.481Z,7.90
2019-02-17T00:33:41.494Z,7.90
2019-02-17T00:36:16.331Z,7.90
2019-02-17T00:39:10.217Z,7.90
2019-02-17T00:43:00.234Z,7.90
2019-02-17T00:45:43.631Z,7.90
2019-02-17T00:48:50.204Z,7.80
2019-02-17T00:51:28.049Z,7.80
2019-02-17T00:54:02.966Z,7.80
2019-02-17T00:56:43.817Z,7.70
2019-02-17T00:59:25.130Z,7.70
2019-02-17T01:02:12.597Z,7.70
2019-02-17T01:04:45.492Z,7.70
2019-02-17T01:07:24.438Z,7.70
2019-02-17T01:10:14.461Z,7.60
2019-02-17T01:15:51.227Z,7.60
2019-02-17T01:18:28.568Z,7.60
2019-02-17T01:21:04.363Z,7.60
2019-02-17T01:23:46.319Z,7.50
2019-02-17T01:26:16.785Z,7.50
2019-02-17T01:28:50.255Z,7.50
2019-02-17T01:31:23.800Z,7.50
2019-02-17T01:34:02.171Z,7.50
2019-02-17T01:36:40.509Z,7.50
2019-02-17T01:39:12.841Z,7.50
2019-02-17T01:41:53.863Z,7.40
2019-02-17T01:44:30.863Z,7.40
2019-02-17T01:47:08.177Z,7.40
2019-02-17T01:49:44.163Z,7.40
2019-02-17T01:52:18.326Z,7.40
2019-02-17T01:54:50.884Z,7.40
2019-02-17T01:57:23.144Z,7.40
2019-02-17T01:59:55.501Z,7.40
2019-02-17T02:02:28.941Z,7.30
2019-02-17T02:05:02.705Z,7.30
2019-02-17T02:07:33.718Z,7.30
2019-02-17T02:10:04.731Z,7.30
2019-02-17T02:12:35.835Z,7.30
2019-02-17T02:15:07.636Z,7.30
2019-02-17T02:17:38.498Z,7.30
2019-02-17T02:20:13.459Z,7.30
2019-02-17T02:22:44.408Z,7.30
2019-02-17T02:25:16.362Z,7.20
2019-02-17T02:27:48.181Z,7.20
2019-02-17T02:30:20.810Z,7.20
2019-02-17T02:32:52.040Z,7.20
2019-02-17T02:35:22.694Z,7.20
2019-02-17T02:37:54.035Z,7.20
2019-02-17T02:40:24.829Z,7.20
2019-02-17T02:42:55.652Z,7.10
2019-02-17T02:45:26.845Z,7.10
2019-02-17T02:48:00.126Z,7.10
2019-02-17T02:50:30.527Z,7.10
2019-02-17T02:53:01.666Z,7.10
2019-02-17T02:55:32.650Z,7.10
2019-02-17T02:58:05.938Z,7.10
2019-02-17T03:00:36.922Z,7.00
2019-02-17T03:03:07.774Z,7.00
2019-02-17T03:05:44.592Z,7.00
2019-02-17T03:08:17.568Z,7.00
2019-02-17T03:10:49.909Z,6.90
2019-02-17T03:13:24.021Z,6.90
2019-02-17T03:15:57.040Z,6.90
2019-02-17T03:18:27.780Z,6.90
2019-02-17T03:20:58.595Z,6.80
2019-02-17T03:23:30.570Z,6.80
2019-02-17T03:26:01.877Z,6.80
2019-02-17T03:28:40.222Z,6.80
2019-02-17T03:31:11.618Z,6.80
2019-02-17T03:33:42.815Z,6.80
2019-02-17T03:36:13.919Z,6.70
2019-02-17T03:38:45.598Z,6.70
2019-02-17T03:41:17.854Z,6.70
2019-02-17T03:43:49.096Z,6.70
2019-02-17T03:46:20.131Z,6.60
2019-02-17T03:48:51.027Z,6.60
2019-02-17T03:51:22.054Z,6.60
2019-02-17T03:53:56.482Z,6.60
2019-02-17T03:56:28.507Z,6.60
2019-02-17T03:59:00.006Z,6.60
2019-02-17T04:01:32.797Z,6.60
2019-02-17T04:04:05.820Z,6.60
2019-02-17T04:06:37.277Z,6.60
2019-02-17T04:09:10.009Z,6.60
2019-02-17T04:11:41.570Z,6.60
2019-02-17T04:14:15.237Z,6.60
2019-02-17T04:16:50.967Z,6.50
2019-02-17T04:19:21.693Z,6.50
2019-02-17T04:22:02.797Z,6.50
2019-02-17T04:24:39.612Z,6.50
2019-02-17T04:27:11.356Z,6.50
2019-02-17T04:29:43.812Z,6.50
2019-02-17T04:32:15.604Z,6.50
2019-02-17T04:34:46.458Z,6.50
2019-02-17T04:37:17.603Z,6.40
2019-02-17T04:39:54.964Z,6.40
2019-02-17T04:42:21.652Z,6.40
2019-02-17T04:44:52.710Z,6.30
2019-02-17T04:47:24.557Z,6.30
2019-02-17T04:49:55.977Z,6.30
2019-02-17T04:52:27.540Z,6.20
2019-02-17T04:54:58.265Z,6.20
2019-02-17T04:57:31.048Z,6.20
2019-02-17T05:00:05.514Z,6.20
2019-02-17T05:02:38.539Z,6.20
2019-02-17T05:05:11.896Z,6.20
2019-02-17T05:07:45.709Z,6.20
2019-02-17T05:10:17.113Z,6.20
2019-02-17T05:12:48.285Z,6.20
2019-02-17T05:15:25.328Z,6.10
2019-02-17T05:18:00.263Z,6.20
2019-02-17T05:20:31.126Z,6.20
2019-02-17T05:23:04.942Z,6.20
2019-02-17T05:25:35.952Z,6.20
2019-02-17T05:28:07.233Z,6.10
2019-02-17T05:30:38.168Z,6.10
2019-02-17T05:33:09.647Z,6.10
2019-02-17T05:35:45.365Z,6.10
2019-02-17T05:38:19.985Z,6.10
2019-02-17T05:40:53.035Z,6.10
2019-02-17T05:43:26.140Z,6.10
2019-02-17T05:45:58.753Z,6.10
2019-02-17T05:48:30.530Z,6.10
2019-02-17T05:51:05.017Z,6.10
2019-02-17T05:53:35.998Z,6.10
2019-02-17T05:56:07.029Z,6.10
2019-02-17T05:58:37.860Z,6.10
2019-02-17T06:01:09.201Z,6.10
2019-02-17T06:03:40.352Z,6.10
2019-02-17T06:06:11.384Z,6.10
2019-02-17T06:08:42.159Z,6.10
2019-02-17T06:11:13.169Z,6.10
2019-02-17T06:13:44.426Z,6.10
2019-02-17T06:16:15.488Z,6.00
2019-02-17T06:18:47.111Z,6.00
2019-02-17T06:21:18.181Z,6.00
2019-02-17T06:23:55.782Z,6.00
2019-02-17T06:26:26.907Z,6.00
2019-02-17T06:29:00.378Z,6.00
2019-02-17T06:31:32.249Z,6.00
2019-02-17T06:34:04.501Z,6.00
2019-02-17T06:36:44.361Z,6.00
2019-02-17T06:39:20.247Z,6.00
2019-02-17T06:41:51.247Z,6.10
2019-02-17T06:44:23.243Z,6.10
2019-02-17T06:47:00.824Z,6.10
2019-02-17T06:49:33.246Z,6.10
2019-02-17T06:52:07.753Z,6.10
2019-02-17T06:54:45.314Z,6.10
2019-02-17T06:57:22.288Z,6.10
2019-02-17T07:00:26.845Z,6.10
2019-02-17T07:03:00.713Z,6.10
2019-02-17T07:05:50.433Z,6.10
2019-02-17T07:08:21.533Z,6.00
2019-02-17T07:10:52.366Z,6.10
2019-02-17T07:13:23.770Z,6.10
2019-02-17T07:15:54.751Z,6.10
2019-02-17T07:18:27.371Z,6.10
2019-02-17T07:20:58.428Z,6.10
2019-02-17T07:23:33.250Z,6.20
2019-02-17T07:26:04.586Z,6.20
2019-02-17T07:28:39.113Z,6.20
2019-02-17T07:31:10.361Z,6.30
2019-02-17T07:33:46.270Z,6.40
2019-02-17T07:36:21.981Z,6.40
2019-02-17T07:38:51.500Z,6.50
2019-02-17T07:41:25.310Z,6.50
2019-02-17T07:43:56.588Z,6.50
2019-02-17T07:46:27.607Z,6.50
2019-02-17T07:49:05.778Z,6.60
2019-02-17T07:51:40.748Z,6.60
2019-02-17T07:54:14.916Z,6.70
2019-02-17T07:56:45.862Z,6.70
2019-02-17T07:59:18.848Z,6.80
2019-02-17T08:01:52.111Z,6.90
2019-02-17T08:04:44.203Z,7.00
2019-02-17T08:07:15.269Z,7.10
2019-02-17T08:09:50.307Z,7.10
2019-02-17T08:12:24.834Z,7.20
2019-02-17T08:15:08.725Z,7.30
2019-02-17T08:17:40.216Z,7.40
2019-02-17T08:20:11.601Z,7.50
2019-02-17T08:22:43.984Z,7.60
2019-02-17T08:25:21.709Z,7.60
2019-02-17T08:27:55.375Z,7.70
2019-02-17T08:30:56.341Z,7.70
2019-02-17T08:33:31.386Z,7.80
2019-02-17T08:36:10.233Z,7.90
2019-02-17T08:38:51.819Z,8.00
2019-02-17T08:41:26.845Z,8.00
2019-02-17T08:44:06.788Z,8.10
2019-02-17T08:46:38.270Z,8.20
2019-02-17T08:49:10.483Z,8.20
2019-02-17T08:51:50.717Z,8.40
2019-02-17T08:54:23.611Z,8.60
2019-02-17T08:56:56.265Z,9.00
2019-02-17T08:59:30.036Z,9.10
2019-02-17T09:02:05.987Z,9.10
2019-02-17T09:07:46.339Z,9.10
2019-02-17T09:10:20.017Z,9.10
2019-02-17T09:13:01.999Z,9.10
2019-02-17T09:15:42.224Z,9.20
2019-02-17T09:18:19.426Z,9.20
2019-02-17T09:20:50.447Z,9.30
2019-02-17T09:23:22.532Z,9.50
2019-02-17T09:26:24.286Z,9.70
2019-02-17T09:28:26.722Z,10.10
2019-02-17T09:30:59.141Z,10.10
2019-02-17T09:33:33.411Z,10.10
2019-02-17T09:36:07.993Z,10.30
2019-02-17T09:38:44.124Z,10.40
2019-02-17T09:41:20.855Z,10.60
2019-02-17T09:43:53.243Z,10.60
2019-02-17T09:46:34.320Z,10.60
2019-02-17T09:49:06.880Z,10.60
2019-02-17T09:51:37.884Z,10.70
2019-02-17T09:54:12.664Z,10.70
2019-02-17T09:56:44.216Z,10.80
2019-02-17T09:59:34.274Z,10.90
2019-02-17T10:02:26.257Z,10.90
2019-02-17T10:04:52.687Z,10.90
2019-02-17T10:07:42.487Z,11.00
2019-02-17T10:10:20.096Z,11.10
2019-02-17T10:12:56.481Z,11.20
2019-02-17T10:15:32.685Z,11.30
2019-02-17T10:18:09.550Z,11.30
2019-02-17T10:20:49.933Z,11.40
2019-02-17T10:23:37.719Z,11.50
2019-02-17T10:26:10.895Z,11.50
2019-02-17T10:29:07.904Z,11.50
2019-02-17T10:31:39.725Z,11.60
2019-02-17T10:34:28.469Z,11.70
2019-02-17T10:37:01.153Z,11.70
2019-02-17T10:40:05.718Z,11.80
2019-02-17T10:42:48.865Z,11.80
2019-02-17T10:45:27.810Z,11.90
2019-02-17T10:48:03.121Z,11.90
2019-02-17T10:50:37.013Z,11.90
2019-02-17T10:53:13.572Z,11.90
2019-02-17T10:55:44.872Z,12.00
2019-02-17T10:58:27.977Z,12.10
2019-02-17T11:00:59.090Z,12.20
2019-02-17T11:03:40.078Z,12.20
2019-02-17T11:06:15.938Z,12.20
2019-02-17T11:08:55.385Z,12.30
2019-02-17T11:11:41.470Z,12.40
2019-02-17T11:14:22.483Z,12.50
2019-02-17T11:17:18.305Z,12.60
2019-02-17T11:19:54.760Z,12.60
2019-02-17T11:22:41.854Z,12.70
2019-02-17T11:25:15.613Z,12.70
2019-02-17T11:27:59.334Z,12.70
2019-02-17T11:30:31.084Z,12.80
2019-02-17T11:33:13.759Z,12.80
2019-02-17T11:36:12.195Z,12.90
2019-02-17T11:39:01.138Z,12.90
2019-02-17T11:41:47.337Z,13.00
2019-02-17T11:44:21.794Z,13.10
2019-02-17T11:47:02.078Z,13.20
2019-02-17T11:49:29.866Z,13.20
2019-02-17T11:52:12.343Z,13.30
2019-02-17T11:54:54.318Z,13.30
2019-02-17T11:57:35.134Z,13.30
2019-02-17T12:00:16.392Z,13.40
2019-02-17T12:02:53.390Z,13.50
2019-02-17T12:05:24.424Z,13.60
2019-02-17T12:07:59.127Z,13.70
2019-02-17T12:10:53.391Z,13.70
2019-02-17T12:13:24.616Z,13.80
2019-02-17T12:16:05.488Z,13.90
2019-02-17T12:18:45.396Z,13.90
2019-02-17T12:22:13.942Z,14.00
2019-02-17T12:25:00.244Z,14.00
2019-02-17T12:28:06.244Z,14.10
2019-02-17T12:30:40.047Z,14.20
2019-02-17T12:33:20.587Z,14.30
2019-02-17T12:36:30.886Z,14.30
2019-02-17T12:38:52.940Z,14.40
2019-02-17T12:41:44.090Z,14.40
2019-02-17T12:44:30.372Z,14.50
2019-02-17T12:47:18.125Z,14.50
2019-02-17T12:49:52.560Z,14.60
2019-02-17T12:52:32.992Z,14.70
2019-02-17T12:55:42.878Z,14.70
2019-02-17T12:58:15.623Z,14.80
2019-02-17T13:00:48.023Z,14.80
2019-02-17T13:03:28.327Z,14.90
2019-02-17T13:05:56.249Z,14.90
2019-02-17T13:08:27.564Z,15.00
2019-02-17T13:11:05.718Z,14.90
2019-02-17T13:13:40.740Z,15.00
2019-02-17T13:16:17.083Z,15.00
2019-02-17T13:18:50.944Z,15.10
2019-02-17T13:21:22.453Z,15.10
2019-02-17T13:24:10.789Z,15.20
2019-02-17T13:26:53.620Z,15.30
2019-02-17T13:29:40.162Z,15.40
2019-02-17T13:32:13.583Z,15.40
2019-02-17T13:34:52.687Z,15.50
2019-02-17T13:37:31.446Z,15.50
2019-02-17T13:40:07.318Z,15.50
2019-02-17T13:42:49.614Z,15.50
2019-02-17T13:45:30.423Z,15.60
2019-02-17T13:49:03.987Z,15.60
2019-02-17T13:52:08.190Z,15.60
2019-02-17T13:54:00.702Z,15.60
2019-02-17T13:56:39.730Z,15.60
2019-02-17T13:59:19.753Z,15.50
2019-02-17T14:01:57.423Z,15.50
2019-02-17T14:04:32.233Z,15.50
2019-02-17T14:07:28.570Z,15.40
2019-02-17T14:10:29.621Z,15.40
2019-02-17T14:13:08.058Z,15.50
2019-02-17T14:15:42.384Z,15.50
2019-02-17T14:18:36.950Z,15.50
2019-02-17T14:21:14.227Z,15.50
2019-02-17T14:23:45.341Z,15.50
2019-02-17T14:26:36.862Z,15.50
2019-02-17T14:29:10.751Z,15.60
2019-02-17T14:31:42.845Z,15.60
2019-02-17T14:34:17.360Z,15.60
2019-02-17T14:36:58.569Z,15.70
2019-02-17T14:39:30.224Z,15.70
2019-02-17T14:42:07.699Z,15.70
2019-02-17T14:44:51.752Z,15.70
2019-02-17T14:47:30.074Z,15.70
2019-02-17T14:50:06.412Z,15.70
2019-02-17T14:52:43.608Z,15.70
2019-02-17T14:55:14.656Z,15.70
2019-02-17T14:58:34.516Z,15.70
2019-02-17T15:00:45.853Z,15.60
2019-02-17T15:03:25.981Z,15.60
2019-02-17T15:06:19.599Z,15.60
2019-02-17T15:11:42.573Z,15.60
2019-02-17T15:14:19.916Z,15.60
2019-02-17T15:16:57.312Z,15.50
2019-02-17T15:19:33.364Z,15.50
2019-02-17T15:22:12.287Z,15.50
2019-02-17T15:24:45.374Z,15.40
2019-02-17T15:27:18.339Z,15.40
2019-02-17T15:29:52.148Z,15.40
2019-02-17T15:33:25.282Z,15.30
2019-02-17T15:35:22.266Z,15.30
2019-02-17T15:38:11.099Z,15.30
2019-02-17T15:40:44.721Z,15.20
2019-02-17T15:44:16.007Z,15.20
2019-02-17T15:46:29.868Z,15.10
2019-02-17T15:49:34.845Z,15.10
2019-02-17T15:53:02.980Z,15.00
2019-02-17T15:55:19.243Z,14.90
2019-02-17T15:58:00.008Z,14.80
2019-02-17T16:00:33.961Z,14.80
2019-02-17T16:03:16.757Z,14.70
2019-02-17T16:06:09.454Z,14.60
2019-02-17T16:08:52.634Z,14.50
2019-02-17T16:11:24.677Z,14.50
2019-02-17T16:14:01.661Z,14.40
2019-02-17T16:16:32.841Z,14.40
2019-02-17T16:19:07.960Z,14.30
2019-02-17T16:21:41.917Z,14.30
2019-02-17T16:24:25.375Z,14.20
2019-02-17T16:27:17.119Z,14.20
2019-02-17T16:29:59.279Z,14.10
2019-02-17T16:32:35.706Z,14.10
2019-02-17T16:35:16.364Z,14.00
2019-02-17T16:37:52.530Z,13.90
2019-02-17T16:40:37.382Z,13.90
2019-02-17T16:43:24.179Z,13.80
2019-02-17T16:46:28.525Z,13.80
2019-02-17T16:49:05.930Z,13.70
2019-02-17T16:51:41.002Z,13.70
2019-02-17T16:54:14.202Z,13.60
2019-02-17T16:56:59.358Z,13.60
2019-02-17T16:59:48.350Z,13.60
2019-02-17T17:02:30.802Z,13.60
2019-02-17T17:05:37.474Z,13.50
2019-02-17T17:08:14.907Z,13.50
2019-02-17T17:10:54.900Z,13.40
2019-02-17T17:16:39.112Z,13.40
2019-02-17T17:22:21.516Z,13.20
2019-02-17T17:26:16.619Z,13.10
2019-02-17T17:28:18.642Z,13.10
2019-02-17T17:35:08.315Z,12.90
2019-02-17T17:37:56.901Z,12.90
2019-02-17T17:40:38.771Z,12.80
2019-02-17T17:43:26.349Z,12.80
2019-02-17T17:46:19.040Z,12.70
2019-02-17T17:49:08.607Z,12.70
2019-02-17T17:52:10.738Z,12.70
2019-02-17T17:54:57.076Z,12.60
2019-02-17T17:57:40.250Z,12.60
2019-02-17T18:00:31.094Z,12.60
2019-02-17T18:03:00.353Z,12.50
2019-02-17T18:05:33.971Z,12.50
2019-02-17T18:08:52.416Z,12.50
2019-02-17T18:11:33.113Z,12.40
2019-02-17T18:14:12.981Z,12.40
2019-02-17T18:17:17.936Z,12.40
2019-02-17T18:20:25.495Z,12.30
2019-02-17T18:23:02.078Z,12.30
2019-02-17T18:25:41.319Z,12.20
2019-02-17T18:28:31.390Z,12.10
2019-02-17T18:31:10.016Z,12.10
2019-02-17T18:33:58.897Z,12.00
2019-02-17T18:37:05.958Z,11.90
2019-02-17T18:39:43.625Z,11.90
2019-02-17T18:42:23.535Z,11.90
2019-02-17T18:45:09.426Z,11.90
2019-02-17T18:48:24.016Z,11.90
2019-02-17T18:51:28.675Z,11.90
2019-02-17T18:54:07.664Z,11.90
2019-02-17T18:56:40.290Z,11.90
2019-02-17T18:59:28.904Z,11.90
2019-02-17T19:02:07.565Z,11.90
2019-02-17T19:05:48.905Z,11.90
2019-02-17T19:08:11.384Z,11.90
2019-02-17T19:11:06.011Z,11.90
2019-02-17T19:17:08.098Z,11.90
2019-02-17T19:20:03.557Z,11.80
2019-02-17T19:22:42.737Z,11.80
2019-02-17T19:25:41.510Z,11.80
2019-02-17T19:28:17.211Z,11.80
2019-02-17T19:30:49.752Z,11.70
2019-02-17T19:34:01.867Z,11.70
2019-02-17T19:36:44.185Z,11.70
2019-02-17T19:39:23.775Z,11.60
2019-02-17T19:41:59.037Z,11.60
2019-02-17T19:44:36.831Z,11.60
2019-02-17T19:47:14.199Z,11.60
2019-02-17T19:49:54.485Z,11.50
2019-02-17T19:52:49.607Z,11.50
2019-02-17T19:55:26.271Z,11.50
2019-02-17T19:57:57.367Z,11.40
2019-02-17T20:00:44.562Z,11.40
2019-02-17T20:03:28.188Z,11.30
2019-02-17T20:06:01.346Z,11.30
2019-02-17T20:08:38.676Z,11.30
2019-02-17T20:11:13.027Z,11.20
2019-02-17T20:13:52.905Z,11.10
2019-02-17T20:16:23.148Z,11.00
2019-02-17T20:18:53.924Z,11.00
2019-02-17T20:21:42.687Z,11.00
2019-02-17T20:24:18.489Z,10.90
2019-02-17T20:27:02.036Z,10.90
2019-02-17T20:29:36.854Z,10.80
2019-02-17T20:32:08.408Z,10.80
2019-02-17T20:34:42.277Z,10.80
2019-02-17T20:37:17.689Z,10.70
2019-02-17T20:40:30.514Z,10.70
2019-02-17T20:43:08.091Z,10.70
2019-02-17T20:45:49.811Z,10.60
2019-02-17T20:48:27.836Z,10.60
2019-02-17T20:51:31.851Z,10.60
2019-02-17T20:54:13.662Z,10.60
2019-02-17T20:56:58.185Z,10.50
2019-02-17T20:59:31.338Z,10.50
2019-02-17T21:02:14.301Z,10.40
2019-02-17T21:04:54.479Z,10.40
2019-02-17T21:07:31.089Z,10.40
2019-02-17T21:10:05.924Z,10.30
2019-02-17T21:12:50.388Z,10.30
2019-02-17T21:15:45.490Z,10.30
2019-02-17T21:18:18.135Z,10.20
2019-02-17T21:20:55.449Z,10.20
2019-02-17T21:24:10.480Z,10.20
2019-02-17T21:26:44.561Z,10.20
2019-02-17T21:29:18.981Z,10.10
2019-02-17T21:31:54.990Z,10.10
2019-02-17T21:34:48.452Z,10.00
2019-02-17T21:37:31.564Z,10.00
2019-02-17T21:40:08.241Z,10.00
2019-02-17T21:42:42.501Z,10.00
2019-02-17T21:45:32.655Z,10.00
2019-02-17T21:48:17.597Z,10.00
2019-02-17T21:50:58.468Z,9.90
2019-02-17T21:53:31.382Z,9.90
2019-02-17T21:56:10.923Z,9.90
2019-02-17T21:58:42.249Z,9.80
2019-02-17T22:01:23.989Z,9.90
2019-02-17T22:04:05.124Z,9.90
2019-02-17T22:06:43.497Z,9.80
2019-02-17T22:09:40.594Z,9.80
2019-02-17T22:13:05.575Z,9.80
2019-02-17T22:15:13.166Z,9.80
2019-02-17T22:18:18.048Z,9.70
2019-02-17T22:20:52.938Z,9.80
2019-02-17T22:23:27.889Z,9.70
2019-02-17T22:26:00.051Z,9.70
2019-02-17T22:28:49.504Z,9.70
2019-02-17T22:31:32.044Z,9.70
2019-02-17T22:34:10.589Z,9.70
2019-02-17T22:36:49.366Z,9.60
2019-02-17T22:39:31.181Z,9.60
2019-02-17T22:42:04.164Z,9.60
2019-02-17T22:44:35.288Z,9.60
2019-02-17T22:47:14.490Z,9.50
2019-02-17T22:49:52.454Z,9.50
2019-02-17T22:52:33.675Z,9.50
2019-02-17T22:55:10.221Z,9.50
2019-02-17T22:58:08.539Z,9.40
2019-02-17T23:01:12.744Z,9.40
2019-02-17T23:04:09.023Z,9.40
2019-02-17T23:07:08.902Z,9.30
2019-02-17T23:10:09.220Z,9.30
2019-02-17T23:12:49.731Z,9.30
2019-02-17T23:15:25.380Z,9.20
2019-02-17T23:18:04.985Z,9.20
2019-02-17T23:20:40.106Z,9.10
2019-02-17T23:23:16.276Z,9.10
2019-02-17T23:25:48.036Z,9.10
2019-02-17T23:28:30.564Z,9.10
2019-02-17T23:30:56.524Z,9.10
2019-02-17T23:33:35.390Z,9.10
2019-02-17T23:36:13.101Z,9.00
2019-02-17T23:38:47.839Z,9.00
2019-02-17T23:41:23.422Z,9.00
2019-02-17T23:43:54.846Z,9.00
2019-02-17T23:46:36.351Z,9.00
2019-02-17T23:49:32.455Z,9.00
2019-02-17T23:51:50.899Z,8.90
2019-02-17T23:54:26.671Z,8.90
2019-02-17T23:57:22.515Z,8.90
2019-02-17T23:59:44.812Z,8.80
